sensor_id;sensor_type;location;lat;lon;timestamp;temperature;humidity
35299;DHT22;21415;48.054;16.646;2023-03-03T00:02:19;7.60;40.30
35299;DHT22;21415;48.054;16.646;2023-03-03T00:04:44;7.60;40.30
35299;DHT22;21415;48.054;16.646;2023-03-03T00:07:10;7.70;40.40
35299;DHT22;21415;48.054;16.646;2023-03-03T00:09:36;8.00;40.70
35299;DHT22;21415;48.054;16.646;2023-03-03T00:12:22;7.80;40.60
35299;DHT22;21415;48.054;16.646;2023-03-03T00:14:48;7.60;41.00
35299;DHT22;21415;48.054;16.646;2023-03-03T00:17:27;7.50;40.40
35299;DHT22;21415;48.054;16.646;2023-03-03T00:19:54;7.50;40.80
35299;DHT22;21415;48.054;16.646;2023-03-03T00:22:27;7.50;40.50
35299;DHT22;21415;48.054;16.646;2023-03-03T00:24:53;7.50;40.60
35299;DHT22;21415;48.054;16.646;2023-03-03T00:27:28;7.60;40.50
35299;DHT22;21415;48.054;16.646;2023-03-03T00:29:56;7.50;40.80
35299;DHT22;21415;48.054;16.646;2023-03-03T00:32:43;7.40;40.50
35299;DHT22;21415;48.054;16.646;2023-03-03T00:35:30;7.40;41.00
35299;DHT22;21415;48.054;16.646;2023-03-03T00:38:09;7.40;41.00
35299;DHT22;21415;48.054;16.646;2023-03-03T00:40:39;7.40;40.60
35299;DHT22;21415;48.054;16.646;2023-03-03T00:43:21;7.30;40.80
35299;DHT22;21415;48.054;16.646;2023-03-03T00:45:52;7.30;41.00
35299;DHT22;21415;48.054;16.646;2023-03-03T00:51:06;7.30;41.00
35299;DHT22;21415;48.054;16.646;2023-03-03T00:53:34;7.30;40.80
35299;DHT22;21415;48.054;16.646;2023-03-03T00:56:00;7.40;40.80
35299;DHT22;21415;48.054;16.646;2023-03-03T00:58:26;7.80;41.10
35299;DHT22;21415;48.054;16.646;2023-03-03T01:00:53;7.20;40.80
35299;DHT22;21415;48.054;16.646;2023-03-03T01:03:24;7.20;40.90
35299;DHT22;21415;48.054;16.646;2023-03-03T01:05:52;7.40;41.00
35299;DHT22;21415;48.054;16.646;2023-03-03T01:08:19;7.20;40.90
35299;DHT22;21415;48.054;16.646;2023-03-03T01:10:51;7.20;41.00
35299;DHT22;21415;48.054;16.646;2023-03-03T01:13:19;7.30;41.20
35299;DHT22;21415;48.054;16.646;2023-03-03T01:15:46;7.10;40.90
35299;DHT22;21415;48.054;16.646;2023-03-03T01:18:13;7.20;40.90
35299;DHT22;21415;48.054;16.646;2023-03-03T01:20:40;7.20;41.00
35299;DHT22;21415;48.054;16.646;2023-03-03T01:23:06;7.10;41.00
35299;DHT22;21415;48.054;16.646;2023-03-03T01:25:32;7.00;40.80
35299;DHT22;21415;48.054;16.646;2023-03-03T01:27:58;7.00;40.90
35299;DHT22;21415;48.054;16.646;2023-03-03T01:30:25;7.20;41.10
35299;DHT22;21415;48.054;16.646;2023-03-03T01:32:51;7.00;41.10
35299;DHT22;21415;48.054;16.646;2023-03-03T01:35:17;6.90;41.10
35299;DHT22;21415;48.054;16.646;2023-03-03T01:37:43;6.90;41.10
35299;DHT22;21415;48.054;16.646;2023-03-03T01:40:20;6.80;41.00
35299;DHT22;21415;48.054;16.646;2023-03-03T01:42:47;6.70;41.40
35299;DHT22;21415;48.054;16.646;2023-03-03T01:45:22;6.80;41.00
35299;DHT22;21415;48.054;16.646;2023-03-03T01:50:44;6.80;41.40
35299;DHT22;21415;48.054;16.646;2023-03-03T01:53:21;6.80;41.60
35299;DHT22;21415;48.054;16.646;2023-03-03T01:55:49;6.80;41.60
35299;DHT22;21415;48.054;16.646;2023-03-03T01:58:23;7.30;41.60
35299;DHT22;21415;48.054;16.646;2023-03-03T02:00:54;6.80;41.50
35299;DHT22;21415;48.054;16.646;2023-03-03T02:03:29;7.30;41.70
35299;DHT22;21415;48.054;16.646;2023-03-03T02:06:00;6.70;41.70
35299;DHT22;21415;48.054;16.646;2023-03-03T02:08:34;6.70;41.60
35299;DHT22;21415;48.054;16.646;2023-03-03T02:11:02;6.70;41.60
35299;DHT22;21415;48.054;16.646;2023-03-03T02:13:30;6.70;41.70
35299;DHT22;21415;48.054;16.646;2023-03-03T02:15:56;6.90;41.80
35299;DHT22;21415;48.054;16.646;2023-03-03T02:18:23;6.80;41.80
35299;DHT22;21415;48.054;16.646;2023-03-03T02:20:57;6.80;41.80
35299;DHT22;21415;48.054;16.646;2023-03-03T02:26:34;6.80;42.60
35299;DHT22;21415;48.054;16.646;2023-03-03T02:29:06;7.40;42.40
35299;DHT22;21415;48.054;16.646;2023-03-03T02:31:32;6.90;42.20
35299;DHT22;21415;48.054;16.646;2023-03-03T02:33:58;7.00;42.20
35299;DHT22;21415;48.054;16.646;2023-03-03T02:36:27;7.20;42.40
35299;DHT22;21415;48.054;16.646;2023-03-03T02:39:14;7.40;42.70
35299;DHT22;21415;48.054;16.646;2023-03-03T02:44:35;6.90;43.10
35299;DHT22;21415;48.054;16.646;2023-03-03T02:47:03;7.30;42.60
35299;DHT22;21415;48.054;16.646;2023-03-03T02:49:33;7.00;43.00
35299;DHT22;21415;48.054;16.646;2023-03-03T02:52:01;7.60;42.60
35299;DHT22;21415;48.054;16.646;2023-03-03T02:54:29;7.30;42.50
35299;DHT22;21415;48.054;16.646;2023-03-03T02:56:56;7.10;42.40
35299;DHT22;21415;48.054;16.646;2023-03-03T02:59:22;7.70;42.70
35299;DHT22;21415;48.054;16.646;2023-03-03T03:01:50;7.20;42.50
35299;DHT22;21415;48.054;16.646;2023-03-03T03:04:20;7.10;42.90
35299;DHT22;21415;48.054;16.646;2023-03-03T03:06:49;7.60;42.70
35299;DHT22;21415;48.054;16.646;2023-03-03T03:09:17;7.20;42.50
35299;DHT22;21415;48.054;16.646;2023-03-03T03:11:44;7.10;42.40
35299;DHT22;21415;48.054;16.646;2023-03-03T03:14:13;7.20;42.40
35299;DHT22;21415;48.054;16.646;2023-03-03T03:16:39;7.00;42.40
35299;DHT22;21415;48.054;16.646;2023-03-03T03:19:06;7.60;42.70
35299;DHT22;21415;48.054;16.646;2023-03-03T03:21:33;7.00;42.40
35299;DHT22;21415;48.054;16.646;2023-03-03T03:23:59;7.00;42.40
35299;DHT22;21415;48.054;16.646;2023-03-03T03:26:26;7.00;42.40
35299;DHT22;21415;48.054;16.646;2023-03-03T03:28:52;7.00;42.40
35299;DHT22;21415;48.054;16.646;2023-03-03T03:31:19;7.10;42.50
35299;DHT22;21415;48.054;16.646;2023-03-03T03:33:45;6.90;42.40
35299;DHT22;21415;48.054;16.646;2023-03-03T03:36:12;6.90;42.30
35299;DHT22;21415;48.054;16.646;2023-03-03T03:38:39;7.00;42.40
35299;DHT22;21415;48.054;16.646;2023-03-03T03:41:06;6.90;42.50
35299;DHT22;21415;48.054;16.646;2023-03-03T03:43:33;7.00;42.50
35299;DHT22;21415;48.054;16.646;2023-03-03T03:45:59;6.80;42.50
35299;DHT22;21415;48.054;16.646;2023-03-03T03:48:25;6.80;42.50
35299;DHT22;21415;48.054;16.646;2023-03-03T03:50:51;6.80;42.50
35299;DHT22;21415;48.054;16.646;2023-03-03T03:53:18;6.80;42.50
35299;DHT22;21415;48.054;16.646;2023-03-03T03:55:45;6.80;42.60
35299;DHT22;21415;48.054;16.646;2023-03-03T03:58:15;6.80;43.20
35299;DHT22;21415;48.054;16.646;2023-03-03T04:00:44;6.80;42.60
35299;DHT22;21415;48.054;16.646;2023-03-03T04:03:11;6.70;42.50
35299;DHT22;21415;48.054;16.646;2023-03-03T04:05:39;6.70;42.40
35299;DHT22;21415;48.054;16.646;2023-03-03T04:08:06;6.70;42.50
35299;DHT22;21415;48.054;16.646;2023-03-03T04:10:32;6.80;42.60
35299;DHT22;21415;48.054;16.646;2023-03-03T04:12:58;6.60;43.10
35299;DHT22;21415;48.054;16.646;2023-03-03T04:15:24;6.70;42.40
35299;DHT22;21415;48.054;16.646;2023-03-03T04:17:50;6.60;42.30
35299;DHT22;21415;48.054;16.646;2023-03-03T04:20:16;6.60;42.40
35299;DHT22;21415;48.054;16.646;2023-03-03T04:22:44;6.60;42.40
35299;DHT22;21415;48.054;16.646;2023-03-03T04:25:15;6.60;42.40
35299;DHT22;21415;48.054;16.646;2023-03-03T04:27:43;7.00;42.90
35299;DHT22;21415;48.054;16.646;2023-03-03T04:30:10;6.70;42.60
35299;DHT22;21415;48.054;16.646;2023-03-03T04:32:37;6.50;42.50
35299;DHT22;21415;48.054;16.646;2023-03-03T04:35:06;6.50;42.50
35299;DHT22;21415;48.054;16.646;2023-03-03T04:37:33;6.40;42.60
35299;DHT22;21415;48.054;16.646;2023-03-03T04:39:59;6.40;42.70
35299;DHT22;21415;48.054;16.646;2023-03-03T04:42:25;7.00;43.60
35299;DHT22;21415;48.054;16.646;2023-03-03T04:44:53;6.90;42.80
35299;DHT22;21415;48.054;16.646;2023-03-03T04:47:19;6.60;42.60
35299;DHT22;21415;48.054;16.646;2023-03-03T04:49:44;6.50;42.70
35299;DHT22;21415;48.054;16.646;2023-03-03T04:52:10;6.50;42.70
35299;DHT22;21415;48.054;16.646;2023-03-03T04:54:37;6.40;43.30
35299;DHT22;21415;48.054;16.646;2023-03-03T04:57:03;6.90;43.60
35299;DHT22;21415;48.054;16.646;2023-03-03T04:59:29;6.40;43.20
35299;DHT22;21415;48.054;16.646;2023-03-03T05:01:54;6.20;42.30
35299;DHT22;21415;48.054;16.646;2023-03-03T05:04:20;6.20;42.50
35299;DHT22;21415;48.054;16.646;2023-03-03T05:06:46;6.20;42.50
35299;DHT22;21415;48.054;16.646;2023-03-03T05:09:12;6.20;42.60
35299;DHT22;21415;48.054;16.646;2023-03-03T05:11:38;6.20;42.70
35299;DHT22;21415;48.054;16.646;2023-03-03T05:14:04;6.20;42.70
35299;DHT22;21415;48.054;16.646;2023-03-03T05:16:30;6.20;42.70
35299;DHT22;21415;48.054;16.646;2023-03-03T05:18:56;6.70;43.10
35299;DHT22;21415;48.054;16.646;2023-03-03T05:21:22;6.10;42.80
35299;DHT22;21415;48.054;16.646;2023-03-03T05:23:47;6.30;42.90
35299;DHT22;21415;48.054;16.646;2023-03-03T05:26:13;6.70;43.20
35299;DHT22;21415;48.054;16.646;2023-03-03T05:28:39;6.30;42.90
35299;DHT22;21415;48.054;16.646;2023-03-03T05:31:05;6.40;43.10
35299;DHT22;21415;48.054;16.646;2023-03-03T05:33:31;6.20;43.00
35299;DHT22;21415;48.054;16.646;2023-03-03T05:35:57;6.40;43.10
35299;DHT22;21415;48.054;16.646;2023-03-03T05:38:23;6.00;42.90
35299;DHT22;21415;48.054;16.646;2023-03-03T05:40:49;6.00;42.90
35299;DHT22;21415;48.054;16.646;2023-03-03T05:43:15;6.10;43.00
35299;DHT22;21415;48.054;16.646;2023-03-03T05:45:41;6.00;43.00
35299;DHT22;21415;48.054;16.646;2023-03-03T05:48:07;6.00;43.00
35299;DHT22;21415;48.054;16.646;2023-03-03T05:50:35;6.20;43.20
35299;DHT22;21415;48.054;16.646;2023-03-03T05:53:01;6.10;43.20
35299;DHT22;21415;48.054;16.646;2023-03-03T05:55:27;6.00;43.20
35299;DHT22;21415;48.054;16.646;2023-03-03T05:57:53;5.90;43.20
35299;DHT22;21415;48.054;16.646;2023-03-03T06:00:19;5.90;43.30
35299;DHT22;21415;48.054;16.646;2023-03-03T06:02:45;5.90;43.40
35299;DHT22;21415;48.054;16.646;2023-03-03T06:05:11;5.90;43.50
35299;DHT22;21415;48.054;16.646;2023-03-03T06:07:36;5.90;43.60
35299;DHT22;21415;48.054;16.646;2023-03-03T06:10:03;6.60;44.00
35299;DHT22;21415;48.054;16.646;2023-03-03T06:12:31;6.00;43.90
35299;DHT22;21415;48.054;16.646;2023-03-03T06:14:57;6.00;43.80
35299;DHT22;21415;48.054;16.646;2023-03-03T06:17:23;6.20;44.10
35299;DHT22;21415;48.054;16.646;2023-03-03T06:19:49;6.20;44.10
35299;DHT22;21415;48.054;16.646;2023-03-03T06:22:14;6.20;44.00
35299;DHT22;21415;48.054;16.646;2023-03-03T06:24:40;6.40;44.20
35299;DHT22;21415;48.054;16.646;2023-03-03T06:27:06;6.40;44.20
35299;DHT22;21415;48.054;16.646;2023-03-03T06:29:32;6.30;44.20
35299;DHT22;21415;48.054;16.646;2023-03-03T06:31:58;6.40;44.20
35299;DHT22;21415;48.054;16.646;2023-03-03T06:34:23;6.60;44.40
35299;DHT22;21415;48.054;16.646;2023-03-03T06:36:49;7.10;44.70
35299;DHT22;21415;48.054;16.646;2023-03-03T06:39:15;6.80;44.50
35299;DHT22;21415;48.054;16.646;2023-03-03T06:41:41;7.30;44.90
35299;DHT22;21415;48.054;16.646;2023-03-03T06:44:06;6.90;44.80
35299;DHT22;21415;48.054;16.646;2023-03-03T06:46:32;7.50;45.10
35299;DHT22;21415;48.054;16.646;2023-03-03T06:48:58;7.60;45.10
35299;DHT22;21415;48.054;16.646;2023-03-03T06:51:33;7.50;45.10
35299;DHT22;21415;48.054;16.646;2023-03-03T06:54:10;7.30;45.40
35299;DHT22;21415;48.054;16.646;2023-03-03T06:56:36;7.30;45.40
35299;DHT22;21415;48.054;16.646;2023-03-03T06:59:05;7.60;45.20
35299;DHT22;21415;48.054;16.646;2023-03-03T07:01:36;7.50;45.50
35299;DHT22;21415;48.054;16.646;2023-03-03T07:04:14;7.60;44.90
35299;DHT22;21415;48.054;16.646;2023-03-03T07:06:41;7.70;45.30
35299;DHT22;21415;48.054;16.646;2023-03-03T07:09:22;7.80;44.90
35299;DHT22;21415;48.054;16.646;2023-03-03T07:11:50;7.90;45.40
35299;DHT22;21415;48.054;16.646;2023-03-03T07:14:18;8.10;45.10
35299;DHT22;21415;48.054;16.646;2023-03-03T07:16:45;8.10;45.10
35299;DHT22;21415;48.054;16.646;2023-03-03T07:19:18;8.10;45.00
35299;DHT22;21415;48.054;16.646;2023-03-03T07:21:45;8.50;45.40
35299;DHT22;21415;48.054;16.646;2023-03-03T07:24:28;8.40;45.00
35299;DHT22;21415;48.054;16.646;2023-03-03T07:27:18;8.40;45.30
35299;DHT22;21415;48.054;16.646;2023-03-03T07:29:49;8.60;45.50
35299;DHT22;21415;48.054;16.646;2023-03-03T07:32:26;8.70;45.00
35299;DHT22;21415;48.054;16.646;2023-03-03T07:34:56;8.70;45.20
35299;DHT22;21415;48.054;16.646;2023-03-03T07:37:36;8.80;45.10
35299;DHT22;21415;48.054;16.646;2023-03-03T07:42:56;9.00;45.70
35299;DHT22;21415;48.054;16.646;2023-03-03T07:45:35;9.10;45.20
35299;DHT22;21415;48.054;16.646;2023-03-03T07:48:25;9.20;45.40
35299;DHT22;21415;48.054;16.646;2023-03-03T07:50:57;9.30;45.80
35299;DHT22;21415;48.054;16.646;2023-03-03T07:53:33;9.40;45.20
35299;DHT22;21415;48.054;16.646;2023-03-03T07:56:00;9.40;45.40
35299;DHT22;21415;48.054;16.646;2023-03-03T07:58:39;9.50;45.10
35299;DHT22;21415;48.054;16.646;2023-03-03T08:03:43;9.70;45.00
35299;DHT22;21415;48.054;16.646;2023-03-03T08:09:24;9.80;45.10
35299;DHT22;21415;48.054;16.646;2023-03-03T08:15:20;10.00;45.00
35299;DHT22;21415;48.054;16.646;2023-03-03T08:17:48;10.10;44.80
35299;DHT22;21415;48.054;16.646;2023-03-03T08:20:38;10.00;44.40
35299;DHT22;21415;48.054;16.646;2023-03-03T08:23:04;10.20;44.60
35299;DHT22;21415;48.054;16.646;2023-03-03T08:25:29;10.20;44.40
35299;DHT22;21415;48.054;16.646;2023-03-03T08:27:55;10.30;44.40
35299;DHT22;21415;48.054;16.646;2023-03-03T08:30:21;10.30;44.30
35299;DHT22;21415;48.054;16.646;2023-03-03T08:32:46;10.40;44.30
35299;DHT22;21415;48.054;16.646;2023-03-03T08:35:12;10.50;44.40
35299;DHT22;21415;48.054;16.646;2023-03-03T08:37:38;10.50;44.80
35299;DHT22;21415;48.054;16.646;2023-03-03T08:40:04;10.60;44.30
35299;DHT22;21415;48.054;16.646;2023-03-03T08:42:30;10.70;44.30
35299;DHT22;21415;48.054;16.646;2023-03-03T08:44:56;10.80;44.20
35299;DHT22;21415;48.054;16.646;2023-03-03T08:47:22;10.90;44.10
35299;DHT22;21415;48.054;16.646;2023-03-03T08:49:48;11.00;44.00
35299;DHT22;21415;48.054;16.646;2023-03-03T08:52:14;11.10;44.50
35299;DHT22;21415;48.054;16.646;2023-03-03T08:54:39;11.10;43.90
35299;DHT22;21415;48.054;16.646;2023-03-03T08:57:05;11.20;43.80
35299;DHT22;21415;48.054;16.646;2023-03-03T08:59:31;11.30;43.60
35299;DHT22;21415;48.054;16.646;2023-03-03T09:02:02;11.40;43.50
35299;DHT22;21415;48.054;16.646;2023-03-03T09:04:28;11.40;43.10
35299;DHT22;21415;48.054;16.646;2023-03-03T09:06:54;11.50;43.00
35299;DHT22;21415;48.054;16.646;2023-03-03T09:09:19;11.50;42.90
35299;DHT22;21415;48.054;16.646;2023-03-03T09:11:45;11.60;42.90
35299;DHT22;21415;48.054;16.646;2023-03-03T09:14:13;11.60;42.80
35299;DHT22;21415;48.054;16.646;2023-03-03T09:16:49;11.60;42.60
35299;DHT22;21415;48.054;16.646;2023-03-03T09:19:31;11.70;42.40
35299;DHT22;21415;48.054;16.646;2023-03-03T09:22:20;11.70;42.30
35299;DHT22;21415;48.054;16.646;2023-03-03T09:24:48;11.70;42.00
35299;DHT22;21415;48.054;16.646;2023-03-03T09:29:52;11.80;42.10
35299;DHT22;21415;48.054;16.646;2023-03-03T09:32:33;11.80;42.40
35299;DHT22;21415;48.054;16.646;2023-03-03T09:37:51;12.00;42.10
35299;DHT22;21415;48.054;16.646;2023-03-03T09:45:42;12.20;42.20
35299;DHT22;21415;48.054;16.646;2023-03-03T09:48:49;12.20;42.10
35299;DHT22;21415;48.054;16.646;2023-03-03T09:56:46;12.40;41.70
35299;DHT22;21415;48.054;16.646;2023-03-03T10:04:47;12.40;41.20
35299;DHT22;21415;48.054;16.646;2023-03-03T10:07:29;12.40;41.60
35299;DHT22;21415;48.054;16.646;2023-03-03T10:20:58;12.50;41.00
35299;DHT22;21415;48.054;16.646;2023-03-03T10:23:45;12.50;41.00
35299;DHT22;21415;48.054;16.646;2023-03-03T10:29:10;12.50;41.00
35299;DHT22;21415;48.054;16.646;2023-03-03T10:34:31;12.50;41.10
35299;DHT22;21415;48.054;16.646;2023-03-03T10:42:39;12.50;41.30
35299;DHT22;21415;48.054;16.646;2023-03-03T10:45:39;12.50;41.20
35299;DHT22;21415;48.054;16.646;2023-03-03T10:51:25;12.60;41.10
35299;DHT22;21415;48.054;16.646;2023-03-03T10:54:11;12.60;41.00
35299;DHT22;21415;48.054;16.646;2023-03-03T11:02:02;12.80;40.60
35299;DHT22;21415;48.054;16.646;2023-03-03T11:21:48;13.10;40.20
35299;DHT22;21415;48.054;16.646;2023-03-03T11:24:25;13.20;39.80
35299;DHT22;21415;48.054;16.646;2023-03-03T11:32:39;13.40;40.30
35299;DHT22;21415;48.054;16.646;2023-03-03T11:35:44;13.40;39.70
35299;DHT22;21415;48.054;16.646;2023-03-03T11:41:02;13.60;39.40
35299;DHT22;21415;48.054;16.646;2023-03-03T11:43:49;13.60;39.30
35299;DHT22;21415;48.054;16.646;2023-03-03T11:46:24;13.70;39.00
35299;DHT22;21415;48.054;16.646;2023-03-03T11:51:28;13.80;39.20
35299;DHT22;21415;48.054;16.646;2023-03-03T11:54:00;13.80;39.10
35299;DHT22;21415;48.054;16.646;2023-03-03T12:02:22;13.90;38.90
35299;DHT22;21415;48.054;16.646;2023-03-03T12:07:53;14.00;38.20
35299;DHT22;21415;48.054;16.646;2023-03-03T12:10:37;14.00;38.10
35299;DHT22;21415;48.054;16.646;2023-03-03T12:13:17;14.00;38.00
35299;DHT22;21415;48.054;16.646;2023-03-03T12:27:09;14.10;37.70
35299;DHT22;21415;48.054;16.646;2023-03-03T12:35:19;14.20;38.30
35299;DHT22;21415;48.054;16.646;2023-03-03T12:38:21;14.20;37.80
35299;DHT22;21415;48.054;16.646;2023-03-03T12:40:59;14.20;37.50
35299;DHT22;21415;48.054;16.646;2023-03-03T12:46:43;14.30;37.50
35299;DHT22;21415;48.054;16.646;2023-03-03T12:49:10;14.30;37.40
35299;DHT22;21415;48.054;16.646;2023-03-03T12:51:54;14.40;37.90
35299;DHT22;21415;48.054;16.646;2023-03-03T13:11:51;14.60;37.30
35299;DHT22;21415;48.054;16.646;2023-03-03T13:14:46;14.60;37.10
35299;DHT22;21415;48.054;16.646;2023-03-03T13:17:28;14.60;37.10
35299;DHT22;21415;48.054;16.646;2023-03-03T13:19:58;14.70;37.30
35299;DHT22;21415;48.054;16.646;2023-03-03T13:22:43;14.70;37.20
35299;DHT22;21415;48.054;16.646;2023-03-03T13:25:33;14.70;36.70
35299;DHT22;21415;48.054;16.646;2023-03-03T13:28:06;14.80;36.30
35299;DHT22;21415;48.054;16.646;2023-03-03T13:30:39;14.80;36.60
35299;DHT22;21415;48.054;16.646;2023-03-03T13:35:43;14.80;36.80
35299;DHT22;21415;48.054;16.646;2023-03-03T13:38:12;14.80;36.90
35299;DHT22;21415;48.054;16.646;2023-03-03T13:40:56;14.90;37.00
35299;DHT22;21415;48.054;16.646;2023-03-03T13:43:33;14.90;36.40
35299;DHT22;21415;48.054;16.646;2023-03-03T13:49:06;14.90;36.60
35299;DHT22;21415;48.054;16.646;2023-03-03T13:51:41;14.90;36.80
35299;DHT22;21415;48.054;16.646;2023-03-03T14:05:15;15.10;36.70
35299;DHT22;21415;48.054;16.646;2023-03-03T14:10:38;15.10;36.30
35299;DHT22;21415;48.054;16.646;2023-03-03T14:13:12;15.10;36.20
35299;DHT22;21415;48.054;16.646;2023-03-03T14:15:54;15.10;36.20
35299;DHT22;21415;48.054;16.646;2023-03-03T14:18:35;15.10;36.50
35299;DHT22;21415;48.054;16.646;2023-03-03T14:21:17;15.10;36.00
35299;DHT22;21415;48.054;16.646;2023-03-03T14:23:53;15.20;36.00
35299;DHT22;21415;48.054;16.646;2023-03-03T14:26:22;15.10;35.90
35299;DHT22;21415;48.054;16.646;2023-03-03T14:28:49;15.20;36.30
35299;DHT22;21415;48.054;16.646;2023-03-03T14:31:21;15.10;36.30
35299;DHT22;21415;48.054;16.646;2023-03-03T14:36:37;15.10;35.70
35299;DHT22;21415;48.054;16.646;2023-03-03T14:41:49;15.20;35.80
35299;DHT22;21415;48.054;16.646;2023-03-03T14:44:24;15.20;36.40
35299;DHT22;21415;48.054;16.646;2023-03-03T14:47:21;15.20;35.60
35299;DHT22;21415;48.054;16.646;2023-03-03T14:49:48;15.20;35.90
35299;DHT22;21415;48.054;16.646;2023-03-03T14:54:43;15.30;36.40
35299;DHT22;21415;48.054;16.646;2023-03-03T15:02:39;15.30;35.80
35299;DHT22;21415;48.054;16.646;2023-03-03T15:05:18;15.30;36.20
35299;DHT22;21415;48.054;16.646;2023-03-03T15:07:48;15.30;35.80
35299;DHT22;21415;48.054;16.646;2023-03-03T15:10:27;15.30;36.20
35299;DHT22;21415;48.054;16.646;2023-03-03T15:12:54;15.30;35.80
35299;DHT22;21415;48.054;16.646;2023-03-03T15:15:22;15.30;36.20
35299;DHT22;21415;48.054;16.646;2023-03-03T15:21:14;15.30;36.00
35299;DHT22;21415;48.054;16.646;2023-03-03T15:23:57;15.30;35.80
35299;DHT22;21415;48.054;16.646;2023-03-03T15:27:03;15.30;36.10
35299;DHT22;21415;48.054;16.646;2023-03-03T15:29:41;15.30;35.70
35299;DHT22;21415;48.054;16.646;2023-03-03T15:32:19;15.30;35.80
35299;DHT22;21415;48.054;16.646;2023-03-03T15:34:53;15.30;35.90
35299;DHT22;21415;48.054;16.646;2023-03-03T15:40:39;15.30;35.60
35299;DHT22;21415;48.054;16.646;2023-03-03T15:43:27;15.30;35.10
35299;DHT22;21415;48.054;16.646;2023-03-03T15:46:14;15.30;35.30
35299;DHT22;21415;48.054;16.646;2023-03-03T15:48:52;15.20;35.30
35299;DHT22;21415;48.054;16.646;2023-03-03T15:54:35;15.20;35.20
35299;DHT22;21415;48.054;16.646;2023-03-03T15:59:56;15.10;35.00
35299;DHT22;21415;48.054;16.646;2023-03-03T16:02:33;15.00;35.00
35299;DHT22;21415;48.054;16.646;2023-03-03T16:05:22;15.00;35.10
35299;DHT22;21415;48.054;16.646;2023-03-03T16:10:54;15.00;35.30
35299;DHT22;21415;48.054;16.646;2023-03-03T16:27:20;14.70;34.80
35299;DHT22;21415;48.054;16.646;2023-03-03T16:30:15;14.60;34.70
35299;DHT22;21415;48.054;16.646;2023-03-03T16:33:08;14.60;35.00
35299;DHT22;21415;48.054;16.646;2023-03-03T16:35:42;14.60;35.00
35299;DHT22;21415;48.054;16.646;2023-03-03T16:38:18;14.50;34.90
35299;DHT22;21415;48.054;16.646;2023-03-03T16:40:57;14.50;35.00
35299;DHT22;21415;48.054;16.646;2023-03-03T16:43:39;14.30;34.90
35299;DHT22;21415;48.054;16.646;2023-03-03T16:46:20;14.20;35.00
35299;DHT22;21415;48.054;16.646;2023-03-03T16:49:06;14.20;35.00
35299;DHT22;21415;48.054;16.646;2023-03-03T16:54:32;14.00;35.10
35299;DHT22;21415;48.054;16.646;2023-03-03T17:02:00;13.70;35.40
35299;DHT22;21415;48.054;16.646;2023-03-03T17:04:46;13.60;35.30
35299;DHT22;21415;48.054;16.646;2023-03-03T17:10:19;13.50;35.40
35299;DHT22;21415;48.054;16.646;2023-03-03T17:20:49;13.10;35.50
35299;DHT22;21415;48.054;16.646;2023-03-03T17:23:48;13.10;35.70
35299;DHT22;21415;48.054;16.646;2023-03-03T17:32:31;12.90;35.80
35299;DHT22;21415;48.054;16.646;2023-03-03T17:38:16;12.80;35.90
35299;DHT22;21415;48.054;16.646;2023-03-03T17:46:53;12.60;35.90
35299;DHT22;21415;48.054;16.646;2023-03-03T17:52:21;12.50;36.10
35299;DHT22;21415;48.054;16.646;2023-03-03T17:58:39;12.40;36.20
35299;DHT22;21415;48.054;16.646;2023-03-03T18:03:46;12.20;36.30
35299;DHT22;21415;48.054;16.646;2023-03-03T18:12:10;12.10;36.40
35299;DHT22;21415;48.054;16.646;2023-03-03T18:17:33;12.00;36.50
35299;DHT22;21415;48.054;16.646;2023-03-03T18:22:46;11.80;36.50
35299;DHT22;21415;48.054;16.646;2023-03-03T18:25:14;11.80;36.60
35299;DHT22;21415;48.054;16.646;2023-03-03T18:27:46;11.70;36.60
35299;DHT22;21415;48.054;16.646;2023-03-03T18:30:21;11.60;36.70
35299;DHT22;21415;48.054;16.646;2023-03-03T18:37:54;11.50;36.90
35299;DHT22;21415;48.054;16.646;2023-03-03T18:40:29;11.50;37.10
35299;DHT22;21415;48.054;16.646;2023-03-03T18:42:55;11.40;37.20
35299;DHT22;21415;48.054;16.646;2023-03-03T18:48:09;11.40;37.30
35299;DHT22;21415;48.054;16.646;2023-03-03T18:53:27;11.40;37.40
35299;DHT22;21415;48.054;16.646;2023-03-03T18:55:56;11.30;37.50
35299;DHT22;21415;48.054;16.646;2023-03-03T18:58:29;11.30;37.40
35299;DHT22;21415;48.054;16.646;2023-03-03T19:03:55;11.30;37.60
35299;DHT22;21415;48.054;16.646;2023-03-03T19:07:08;11.30;37.60
35299;DHT22;21415;48.054;16.646;2023-03-03T19:09:11;11.30;37.60
35299;DHT22;21415;48.054;16.646;2023-03-03T19:11:49;11.30;37.50
35299;DHT22;21415;48.054;16.646;2023-03-03T19:17:44;11.20;38.10
35299;DHT22;21415;48.054;16.646;2023-03-03T19:20:11;11.20;37.60
35299;DHT22;21415;48.054;16.646;2023-03-03T19:22:51;11.20;37.60
35299;DHT22;21415;48.054;16.646;2023-03-03T19:25:29;11.10;37.50
35299;DHT22;21415;48.054;16.646;2023-03-03T19:30:55;11.10;37.50
35299;DHT22;21415;48.054;16.646;2023-03-03T19:38:56;10.90;37.60
35299;DHT22;21415;48.054;16.646;2023-03-03T19:42:01;10.80;37.50
35299;DHT22;21415;48.054;16.646;2023-03-03T19:47:34;10.70;37.50
35299;DHT22;21415;48.054;16.646;2023-03-03T19:50:28;10.60;37.70
35299;DHT22;21415;48.054;16.646;2023-03-03T19:53:20;10.60;37.80
35299;DHT22;21415;48.054;16.646;2023-03-03T20:04:15;10.30;38.10
35299;DHT22;21415;48.054;16.646;2023-03-03T20:06:54;10.20;38.00
35299;DHT22;21415;48.054;16.646;2023-03-03T20:09:44;10.20;38.10
35299;DHT22;21415;48.054;16.646;2023-03-03T20:31:26;9.90;39.10
35299;DHT22;21415;48.054;16.646;2023-03-03T20:34:30;9.90;39.10
35299;DHT22;21415;48.054;16.646;2023-03-03T20:48:18;9.70;39.30
35299;DHT22;21415;48.054;16.646;2023-03-03T20:50:57;9.70;39.80
35299;DHT22;21415;48.054;16.646;2023-03-03T20:54:10;9.70;39.70
35299;DHT22;21415;48.054;16.646;2023-03-03T20:59:42;9.70;39.80
35299;DHT22;21415;48.054;16.646;2023-03-03T21:02:35;9.70;40.00
35299;DHT22;21415;48.054;16.646;2023-03-03T21:05:23;9.70;40.10
35299;DHT22;21415;48.054;16.646;2023-03-03T21:07:58;9.60;40.10
35299;DHT22;21415;48.054;16.646;2023-03-03T21:10:28;9.70;40.10
35299;DHT22;21415;48.054;16.646;2023-03-03T21:12:57;9.60;39.90
35299;DHT22;21415;48.054;16.646;2023-03-03T21:17:53;9.70;40.10
35299;DHT22;21415;48.054;16.646;2023-03-03T21:20:33;9.60;39.90
35299;DHT22;21415;48.054;16.646;2023-03-03T21:23:00;9.60;40.90
35299;DHT22;21415;48.054;16.646;2023-03-03T21:25:46;9.50;40.00
35299;DHT22;21415;48.054;16.646;2023-03-03T21:28:23;9.50;40.60
35299;DHT22;21415;48.054;16.646;2023-03-03T21:31:14;9.50;40.50
35299;DHT22;21415;48.054;16.646;2023-03-03T21:33:44;9.50;40.70
35299;DHT22;21415;48.054;16.646;2023-03-03T21:36:17;9.40;40.20
35299;DHT22;21415;48.054;16.646;2023-03-03T21:38:44;9.40;40.50